Time;durP1;ratioP1;P1;durP2;ratioP2;P2;SDS_P1;SDS_P2;PMS_P1;PMS_P2;Temp;Humidity;BMP_temperature;BMP_pressure;BME280_temperature;BME280_humidity;BME280_pressure;Samples;Min_cycle;Max_cycle;Signal;HPM_P1;HPM_P2
2023/10/09 00:01:13;;;;;;;9.07;3.40;;;12.00;99.90;;;;;;5007711;28;20061;-73
2023/10/09 00:03:45;;;;;;;9.77;3.53;;;12.00;99.90;;;;;;5016402;28;20252;-73
2023/10/09 00:06:14;;;;;;;13.18;3.80;;;12.00;99.90;;;;;;5015980;28;20475;-73
2023/10/09 00:08:44;;;;;;;11.18;3.80;;;11.90;99.90;;;;;;5016050;28;20046;-73
2023/10/09 00:11:16;;;;;;;12.32;3.67;;;11.90;99.90;;;;;;5015014;28;20040;-73
2023/10/09 00:13:48;;;;;;;12.35;4.07;;;11.70;99.90;;;;;;5016165;28;20030;-73
2023/10/09 00:16:16;;;;;;;14.52;4.15;;;11.70;99.90;;;;;;5015844;28;20030;-73
2023/10/09 00:18:46;;;;;;;14.63;4.72;;;11.70;99.90;;;;;;5016152;28;20065;-73
2023/10/09 00:21:16;;;;;;;12.00;3.67;;;11.60;99.90;;;;;;5015831;28;20386;-73
2023/10/09 00:23:41;;;;;;;10.98;3.70;;;11.60;99.90;;;;;;5016273;28;20285;-73
2023/10/09 00:26:12;;;;;;;9.82;3.60;;;11.60;99.90;;;;;;5015524;28;20060;-73
2023/10/09 00:28:43;;;;;;;11.13;4.03;;;11.60;99.90;;;;;;5016231;28;20112;-73
2023/10/09 00:31:15;;;;;;;12.50;3.83;;;11.60;99.90;;;;;;5015660;28;20424;-73
2023/10/09 00:33:44;;;;;;;14.23;4.38;;;11.50;99.90;;;;;;5013805;28;20478;-73
2023/10/09 00:36:11;;;;;;;13.57;3.80;;;11.40;99.90;;;;;;4996982;28;20471;-73
2023/10/09 00:38:45;;;;;;;10.82;3.80;;;11.30;99.90;;;;;;4996380;28;20026;-73
2023/10/09 00:41:12;;;;;;;10.50;3.38;;;11.30;99.90;;;;;;4979669;28;20026;-73
2023/10/09 00:43:42;;;;;;;10.35;3.60;;;11.20;99.90;;;;;;4995760;28;20048;-73
2023/10/09 00:46:27;;;;;;;13.13;4.32;;;11.20;99.90;;;;;;4996071;28;20058;-73
2023/10/09 00:49:02;;;;;;;10.65;3.58;;;11.30;99.90;;;;;;4995626;28;20026;-73
2023/10/09 00:51:34;;;;;;;7.53;2.72;;;11.20;99.90;;;;;;4995597;28;20053;-73
2023/10/09 00:54:08;;;;;;;10.13;3.35;;;11.30;99.90;;;;;;4995462;28;20483;-73
2023/10/09 00:56:44;;;;;;;11.40;3.25;;;11.30;99.90;;;;;;4978007;28;20034;-73
2023/10/09 00:59:15;;;;;;;11.10;3.60;;;11.30;99.90;;;;;;4995667;28;20554;-74
2023/10/09 01:01:55;;;;;;;12.93;3.25;;;11.20;99.90;;;;;;4995654;28;20057;-73
2023/10/09 01:04:22;;;;;;;8.27;2.97;;;11.20;99.90;;;;;;4995668;28;20031;-73
2023/10/09 01:07:04;;;;;;;11.43;3.72;;;11.20;99.90;;;;;;4994377;28;20084;-73
2023/10/09 01:09:36;;;;;;;12.70;3.65;;;11.10;99.90;;;;;;4995014;28;20384;-73
2023/10/09 01:14:27;;;;;;;8.18;3.47;;;11.10;99.90;;;;;;4977570;28;20049;-73
2023/10/09 01:16:54;;;;;;;8.10;3.58;;;11.00;99.90;;;;;;4993862;28;20023;-73
2023/10/09 01:19:30;;;;;;;9.93;3.13;;;11.10;99.90;;;;;;4994792;28;20031;-73
2023/10/09 01:22:04;;;;;;;9.75;3.40;;;11.10;99.90;;;;;;4994457;28;20467;-73
2023/10/09 01:24:31;;;;;;;14.80;3.83;;;11.10;99.90;;;;;;4993700;28;20402;-73
2023/10/09 01:26:59;;;;;;;13.75;3.72;;;11.10;99.90;;;;;;4994757;28;20499;-73
2023/10/09 01:29:29;;;;;;;13.10;3.33;;;11.00;99.90;;;;;;4994565;28;20061;-73
2023/10/09 01:31:56;;;;;;;10.70;3.53;;;11.00;99.90;;;;;;4977132;28;20122;-73
2023/10/09 01:34:42;;;;;;;13.13;3.58;;;11.00;99.90;;;;;;4995998;28;20053;-73
2023/10/09 01:39:48;;;;;;;10.05;3.53;;;11.00;99.90;;;;;;4994525;28;20542;-73
2023/10/09 01:42:23;;;;;;;8.85;2.85;;;11.00;99.90;;;;;;4993664;28;20038;-73
2023/10/09 01:44:49;;;;;;;9.65;3.30;;;10.90;99.90;;;;;;4994499;28;20054;-73
2023/10/09 01:47:18;;;;;;;11.80;3.08;;;10.80;99.90;;;;;;4994569;28;20073;-73
2023/10/09 01:49:48;;;;;;;10.43;3.15;;;10.80;99.90;;;;;;4994449;28;20114;-74
2023/10/09 01:52:18;;;;;;;8.85;3.10;;;10.80;99.90;;;;;;4994592;28;20482;-73
2023/10/09 01:54:50;;;;;;;13.05;3.72;;;10.70;99.90;;;;;;4994146;28;20034;-73
2023/10/09 01:57:23;;;;;;;7.97;2.95;;;10.80;99.90;;;;;;4994422;28;20026;-73
2023/10/09 01:59:50;;;;;;;7.53;3.33;;;10.70;99.90;;;;;;4994363;28;20014;-73
2023/10/09 02:02:26;;;;;;;14.25;6.70;;;10.60;99.90;;;;;;4976978;28;20030;-73
2023/10/09 02:07:41;;;;;;;20.98;11.70;;;10.60;99.90;;;;;;4994606;28;20037;-73
2023/10/09 02:10:21;;;;;;;24.70;11.70;;;10.60;99.90;;;;;;4994338;28;20030;-73
2023/10/09 02:12:57;;;;;;;20.13;9.98;;;10.50;99.90;;;;;;4976829;28;20031;-73
2023/10/09 02:23:46;;;;;;;16.77;6.03;;;10.60;99.90;;;;;;4994439;28;20035;-73
2023/10/09 02:28:52;;;;;;;14.02;5.38;;;10.60;99.90;;;;;;4994363;28;20034;-73
2023/10/09 02:31:21;;;;;;;12.32;5.80;;;10.70;99.90;;;;;;4994631;28;20088;-73
2023/10/09 02:33:50;;;;;;;12.07;6.22;;;10.70;99.90;;;;;;4993382;28;20457;-73
2023/10/09 02:36:16;;;;;;;16.13;5.88;;;10.70;99.90;;;;;;4993977;28;20118;-73
2023/10/09 02:38:43;;;;;;;13.90;5.88;;;10.70;99.90;;;;;;4976666;28;20539;-73
2023/10/09 02:43:47;;;;;;;12.27;5.07;;;10.70;99.90;;;;;;4993869;28;20026;-73
2023/10/09 02:46:17;;;;;;;12.30;5.00;;;10.70;99.90;;;;;;4976333;28;20030;-73
2023/10/09 02:48:50;;;;;;;14.43;5.88;;;10.60;99.90;;;;;;4994177;28;20030;-73
2023/10/09 02:51:32;;;;;;;10.43;3.60;;;10.60;99.90;;;;;;4993925;28;20048;-73
2023/10/09 02:56:55;;;;;;;12.15;3.22;;;10.60;99.90;;;;;;4994267;28;20081;-73
2023/10/09 02:59:21;;;;;;;9.88;3.65;;;10.60;99.90;;;;;;4993164;28;20093;-73
2023/10/09 03:01:48;;;;;;;16.42;3.78;;;10.60;99.90;;;;;;4992766;28;20042;-73
2023/10/09 03:04:14;;;;;;;8.30;3.25;;;10.60;99.90;;;;;;4993145;28;20495;-73
2023/10/09 03:06:49;;;;;;;9.95;2.83;;;10.50;99.90;;;;;;4994237;28;20034;-73
2023/10/09 03:09:26;;;;;;;11.63;3.38;;;10.50;99.90;;;;;;4993719;28;20022;-73
2023/10/09 03:12:00;;;;;;;9.52;3.40;;;10.50;99.90;;;;;;4977944;28;20106;-73
2023/10/09 03:14:27;;;;;;;10.27;2.90;;;10.40;99.90;;;;;;4993531;28;20462;-73
2023/10/09 03:16:53;;;;;;;10.95;3.22;;;10.40;99.90;;;;;;4994013;28;20023;-73
2023/10/09 03:19:19;;;;;;;9.23;2.90;;;10.40;99.90;;;;;;4993587;28;20380;-73
2023/10/09 03:21:46;;;;;;;9.02;2.72;;;10.40;99.90;;;;;;4993873;28;20441;-73
2023/10/09 03:24:12;;;;;;;6.07;3.10;;;10.30;99.90;;;;;;4994281;28;20034;-73
2023/10/09 03:26:37;;;;;;;5.65;2.45;;;10.30;99.90;;;;;;4976896;28;20130;-73
2023/10/09 03:29:09;;;;;;;6.50;2.88;;;10.20;99.90;;;;;;4994425;28;20031;-73
2023/10/09 03:31:36;;;;;;;9.52;2.70;;;10.20;99.90;;;;;;4993586;28;20022;-73
2023/10/09 03:34:03;;;;;;;7.78;2.75;;;10.20;99.90;;;;;;4993525;28;20397;-73
2023/10/09 03:36:30;;;;;;;8.68;2.65;;;10.20;99.90;;;;;;4993283;28;20030;-73
2023/10/09 03:38:58;;;;;;;12.07;3.10;;;10.20;99.90;;;;;;4993535;28;20018;-73
2023/10/09 03:41:29;;;;;;;12.05;3.42;;;10.20;99.90;;;;;;4993421;28;20117;-73
2023/10/09 03:43:54;;;;;;;6.28;2.92;;;10.20;99.90;;;;;;4993901;28;20023;-74
2023/10/09 03:46:33;;;;;;;10.18;3.25;;;10.10;99.90;;;;;;4997121;28;20042;-73
2023/10/09 03:49:02;;;;;;;11.13;3.35;;;10.20;99.90;;;;;;4996834;28;20109;-74
2023/10/09 03:51:29;;;;;;;11.02;2.75;;;10.10;99.90;;;;;;4979601;28;20387;-73
2023/10/09 03:53:55;;;;;;;8.80;2.92;;;10.10;99.90;;;;;;4996675;28;20030;-73
2023/10/09 03:56:21;;;;;;;10.35;3.20;;;10.10;99.90;;;;;;4996575;28;20554;-73
2023/10/09 03:58:54;;;;;;;5.05;2.38;;;10.00;99.90;;;;;;4996618;28;20024;-73
2023/10/09 04:01:28;;;;;;;8.60;2.63;;;10.00;99.90;;;;;;4996468;28;20085;-73
2023/10/09 04:04:00;;;;;;;9.90;2.95;;;10.00;99.90;;;;;;4996399;28;20018;-73
2023/10/09 04:06:33;;;;;;;7.30;2.60;;;9.90;99.90;;;;;;4996313;28;20031;-73
2023/10/09 04:09:00;;;;;;;5.07;2.60;;;10.00;99.90;;;;;;4963205;28;20125;-72
2023/10/09 04:11:26;;;;;;;7.10;2.83;;;9.90;99.90;;;;;;4996348;28;20027;-73
2023/10/09 04:13:52;;;;;;;8.10;2.67;;;9.90;99.90;;;;;;4996182;28;20096;-73
2023/10/09 04:18:57;;;;;;;7.00;2.85;;;9.90;99.90;;;;;;4996128;28;20019;-73
2023/10/09 04:21:36;;;;;;;8.10;2.65;;;9.80;99.90;;;;;;4996099;28;20041;-73
2023/10/09 04:26:37;;;;;;;8.98;2.83;;;9.80;99.90;;;;;;4996034;28;20502;-74
2023/10/09 04:29:03;;;;;;;12.52;4.57;;;9.70;99.90;;;;;;4996130;28;20483;-75
2023/10/09 04:31:37;;;;;;;14.25;6.85;;;9.80;99.90;;;;;;4996049;28;20018;-74
2023/10/09 04:34:22;;;;;;;18.65;8.43;;;9.70;99.90;;;;;;4996502;28;20022;-74
2023/10/09 04:36:56;;;;;;;9.45;4.00;;;9.70;99.90;;;;;;4995992;28;20030;-75
2023/10/09 04:47:38;;;;;;;6.65;3.08;;;9.40;99.90;;;;;;4995848;28;20423;-74
2023/10/09 04:52:51;;;;;;;8.77;2.83;;;9.50;99.90;;;;;;4995755;28;20088;-74
2023/10/09 04:55:19;;;;;;;8.52;3.03;;;9.40;99.90;;;;;;4995133;28;20034;-74
2023/10/09 04:57:46;;;;;;;11.93;2.63;;;9.40;99.90;;;;;;4993152;28;20105;-74
2023/10/09 05:00:36;;;;;;;10.80;4.25;;;9.40;99.90;;;;;;4994957;28;20022;-74
2023/10/09 05:03:45;;;;;;;12.45;5.13;;;9.40;99.90;;;;;;4994144;28;20093;-74
2023/10/09 05:05:59;;;;;;;12.65;3.90;;;9.30;99.90;;;;;;4989824;28;20049;-74
2023/10/09 05:13:42;;;;;;;8.50;2.78;;;9.30;99.90;;;;;;5014912;28;20018;-74
2023/10/09 05:16:18;;;;;;;13.02;3.13;;;9.40;99.90;;;;;;5014898;28;20045;-74
2023/10/09 05:18:55;;;;;;;10.55;3.28;;;9.30;99.90;;;;;;4997274;28;20491;-74
2023/10/09 05:37:17;;;;;;;9.80;3.15;;;9.20;99.90;;;;;;5014616;28;20036;-74
2023/10/09 05:40:21;;;;;;;6.28;2.70;;;9.20;99.90;;;;;;4997492;28;20160;-74
2023/10/09 05:50:39;;;;;;;8.85;3.13;;;9.10;99.90;;;;;;5014615;28;20037;-74
2023/10/09 05:53:07;;;;;;;14.48;3.45;;;9.10;99.90;;;;;;5014480;28;20026;-74
2023/10/09 06:04:15;;;;;;;10.25;2.78;;;9.10;99.90;;;;;;5014359;28;20084;-74
2023/10/09 06:06:45;;;;;;;6.60;2.70;;;9.20;99.90;;;;;;5013938;28;20030;-74
2023/10/09 06:11:54;;;;;;;10.55;3.33;;;9.20;99.90;;;;;;5014213;28;20033;-74
2023/10/09 06:14:25;;;;;;;9.48;3.15;;;9.20;99.90;;;;;;5013954;28;20030;-74
2023/10/09 06:24:23;;;;;;;7.93;3.20;;;9.30;99.90;;;;;;5014095;28;20034;-74
2023/10/09 06:29:35;;;;;;;14.20;3.58;;;9.30;99.90;;;;;;5013836;28;20058;-75
2023/10/09 06:32:50;;;;;;;9.27;3.10;;;9.40;99.90;;;;;;5013923;28;20029;-74
2023/10/09 06:48:55;;;;;;;9.38;3.90;;;9.60;99.90;;;;;;4990690;28;20494;-74
2023/10/09 06:58:57;;;;;;;10.82;3.60;;;9.80;99.90;;;;;;5013609;28;20026;-74
2023/10/09 07:01:42;;;;;;;8.93;3.78;;;9.90;99.90;;;;;;5013800;28;20478;-74
2023/10/09 07:04:45;;;;;;;12.90;4.80;;;10.00;99.90;;;;;;5013827;28;20026;-74
2023/10/09 07:07:20;;;;;;;9.93;3.65;;;10.10;99.90;;;;;;5013253;28;20022;-74
2023/10/09 07:12:42;;;;;;;9.75;3.55;;;10.20;99.90;;;;;;4994474;28;20081;-74
2023/10/09 07:22:52;;;;;;;17.40;5.28;;;10.40;99.90;;;;;;4982379;28;20116;-74
2023/10/09 07:25:58;;;;;;;16.97;4.57;;;10.50;99.90;;;;;;4997589;28;20034;-74
2023/10/09 07:28:36;;;;;;;13.13;5.03;;;10.50;99.90;;;;;;4995312;28;20479;-74
2023/10/09 07:31:08;;;;;;;23.52;7.40;;;10.60;99.90;;;;;;4997658;28;20394;-74
2023/10/09 07:34:30;;;;;;;17.83;5.53;;;10.70;99.90;;;;;;4997855;28;20104;-74
2023/10/09 07:36:32;;;;;;;15.63;5.80;;;10.80;99.90;;;;;;4986603;28;20046;-74
2023/10/09 07:38:59;;;;;;;16.75;5.28;;;10.90;99.90;;;;;;4997490;28;20368;-74
2023/10/09 07:44:13;;;;;;;16.05;5.35;;;11.10;99.90;;;;;;4980806;28;20065;-74
2023/10/09 07:47:13;;;;;;;17.95;5.25;;;11.20;99.90;;;;;;4997122;28;20458;-74
2023/10/09 07:49:39;;;;;;;14.55;4.80;;;11.30;99.90;;;;;;4997106;28;20034;-75
2023/10/09 07:52:06;;;;;;;11.98;4.65;;;11.40;99.90;;;;;;4980301;28;20050;-74
2023/10/09 07:54:32;;;;;;;13.57;4.63;;;11.50;99.90;;;;;;4998723;28;20098;-74
2023/10/09 07:57:08;;;;;;;17.48;5.22;;;11.60;99.90;;;;;;4997073;28;20521;-74
2023/10/09 07:59:41;;;;;;;17.58;5.95;;;11.70;99.90;;;;;;4997121;28;20113;-74
2023/10/09 08:02:13;;;;;;;15.55;5.80;;;11.90;99.90;;;;;;4964174;28;20038;-74
2023/10/09 08:04:47;;;;;;;15.98;5.78;;;12.00;99.90;;;;;;4997088;28;20039;-74
2023/10/09 08:07:25;;;;;;;13.50;4.50;;;12.10;99.90;;;;;;4997000;28;20050;-75
2023/10/09 08:12:57;;;;;;;17.77;5.03;;;12.40;99.90;;;;;;4996960;28;20108;-75
2023/10/09 08:15:27;;;;;;;18.30;4.85;;;12.50;99.90;;;;;;4996597;28;20030;-74
2023/10/09 08:18:03;;;;;;;14.93;5.20;;;12.70;99.90;;;;;;4996765;28;20026;-75
2023/10/09 08:23:47;;;;;;;14.27;5.47;;;13.00;99.90;;;;;;4960481;28;20032;-75
2023/10/09 08:26:14;;;;;;;14.05;5.30;;;13.10;99.90;;;;;;4996315;28;20026;-75
2023/10/09 08:28:45;;;;;;;16.05;6.20;;;13.30;99.90;;;;;;4996260;28;20406;-74
2023/10/09 08:33:58;;;;;;;20.00;5.45;;;13.50;99.90;;;;;;4996828;28;20113;-75
2023/10/09 08:36:28;;;;;;;17.45;5.90;;;13.70;99.90;;;;;;4978625;28;20026;-75
2023/10/09 08:39:14;;;;;;;14.95;5.93;;;13.80;99.90;;;;;;4996187;28;20423;-75
2023/10/09 08:41:40;;;;;;;19.13;5.70;;;13.90;99.90;;;;;;4996334;28;20128;-75
2023/10/09 08:44:07;;;;;;;13.75;6.57;;;14.00;99.90;;;;;;4995964;28;20030;-74
2023/10/09 08:46:33;;;;;;;14.63;6.60;;;14.10;99.90;;;;;;4995759;28;20030;-74
2023/10/09 08:49:00;;;;;;;20.40;8.68;;;14.30;99.90;;;;;;4978308;28;20034;-74
2023/10/09 08:51:27;;;;;;;18.85;7.85;;;14.40;99.90;;;;;;4995924;28;20101;-75
2023/10/09 08:53:53;;;;;;;18.33;7.40;;;14.60;99.90;;;;;;4995957;28;20034;-75
2023/10/09 08:56:24;;;;;;;16.35;6.75;;;14.70;99.90;;;;;;4995885;28;20081;-75
2023/10/09 08:58:55;;;;;;;17.80;6.20;;;14.80;99.90;;;;;;4996061;28;20486;-75
2023/10/09 09:01:22;;;;;;;18.13;5.80;;;14.90;99.90;;;;;;4996216;28;20467;-74
2023/10/09 09:03:50;;;;;;;10.02;5.50;;;15.10;99.90;;;;;;4996418;28;20475;-75
2023/10/09 09:06:19;;;;;;;22.17;6.38;;;15.20;99.90;;;;;;4995462;28;20054;-75
2023/10/09 09:08:46;;;;;;;19.95;4.95;;;15.40;99.90;;;;;;4978018;28;20109;-74
2023/10/09 09:11:23;;;;;;;17.45;5.25;;;15.50;99.90;;;;;;4995677;28;20470;-74
2023/10/09 09:14:12;;;;;;;14.20;5.35;;;15.60;99.90;;;;;;4995398;28;20038;-75
2023/10/09 09:16:44;;;;;;;15.50;4.70;;;15.70;99.90;;;;;;4995264;28;20115;-74
2023/10/09 09:22:02;;;;;;;15.10;5.55;;;16.00;99.90;;;;;;4995312;28;20026;-74
2023/10/09 09:24:30;;;;;;;15.35;5.45;;;16.10;99.90;;;;;;4995249;28;20478;-74
2023/10/09 09:27:12;;;;;;;19.83;5.03;;;16.10;99.90;;;;;;4995070;28;20061;-75
2023/10/09 09:29:38;;;;;;;17.17;5.18;;;16.30;99.90;;;;;;4995353;28;20101;-74
2023/10/09 09:33:15;;;;;;;13.55;4.82;;;16.40;99.90;;;;;;4995123;28;20082;-74
2023/10/09 09:35:04;;;;;;;18.92;5.60;;;16.50;99.90;;;;;;4989268;28;20055;-74
2023/10/09 09:37:50;;;;;;;17.27;5.45;;;16.80;99.90;;;;;;4995077;28;20030;-74
2023/10/09 09:40:28;;;;;;;17.63;5.05;;;16.90;99.90;;;;;;4994936;28;20091;-74
2023/10/09 09:43:05;;;;;;;19.45;5.32;;;17.10;99.90;;;;;;4994913;28;20027;-74
2023/10/09 09:45:46;;;;;;;19.77;5.65;;;17.20;99.90;;;;;;4995215;28;20038;-74
2023/10/09 09:48:15;;;;;;;16.75;5.13;;;17.40;99.90;;;;;;4994856;28;20022;-74
2023/10/09 09:50:45;;;;;;;16.02;5.82;;;17.40;99.90;;;;;;4994747;28;20041;-74
2023/10/09 09:53:17;;;;;;;17.17;6.40;;;17.50;99.90;;;;;;4978057;28;20026;-74
2023/10/09 09:55:57;;;;;;;16.30;6.20;;;17.50;99.90;;;;;;4994589;28;20038;-74
2023/10/09 09:58:24;;;;;;;20.55;7.43;;;17.70;99.90;;;;;;4994903;28;20018;-74
2023/10/09 10:00:59;;;;;;;18.30;5.10;;;17.80;99.90;;;;;;4994508;28;20027;-74
2023/10/09 10:03:36;;;;;;;15.05;4.82;;;17.80;99.90;;;;;;4994664;28;20101;-74
2023/10/09 10:06:09;;;;;;;17.10;4.90;;;18.00;99.90;;;;;;4994573;28;20018;-74
2023/10/09 10:08:39;;;;;;;15.38;4.82;;;18.10;99.90;;;;;;4994421;28;20033;-74
2023/10/09 10:11:05;;;;;;;15.52;4.75;;;18.10;99.90;;;;;;4977336;28;20026;-74
2023/10/09 10:13:43;;;;;;;15.10;4.53;;;18.20;99.90;;;;;;4994832;28;20550;-74
2023/10/09 10:16:19;;;;;;;13.70;4.78;;;18.30;99.90;;;;;;4994280;28;20074;-74
2023/10/09 10:19:06;;;;;;;11.73;4.40;;;18.30;99.90;;;;;;4994656;28;20021;-74
2023/10/09 10:21:41;;;;;;;12.25;4.18;;;18.40;99.90;;;;;;4994296;28;20023;-74
2023/10/09 10:24:31;;;;;;;17.85;5.00;;;18.40;99.90;;;;;;4994276;28;20102;-74
2023/10/09 10:28:13;;;;;;;17.95;4.85;;;18.50;99.90;;;;;;4977147;28;20403;-74
2023/10/09 10:30:33;;;;;;;13.30;3.85;;;18.50;99.90;;;;;;4985058;28;20030;-73
2023/10/09 10:33:09;;;;;;;15.35;4.38;;;18.60;99.90;;;;;;4994136;28;20034;-73
2023/10/09 10:38:43;;;;;;;16.67;4.57;;;18.70;99.90;;;;;;4994427;28;20066;-73
2023/10/09 10:41:11;;;;;;;17.52;4.70;;;18.80;99.90;;;;;;4994406;28;20026;-73
2023/10/09 10:49:14;;;;;;;14.35;4.28;;;19.00;99.90;;;;;;4994281;28;20042;-73
2023/10/09 10:51:41;;;;;;;11.38;3.70;;;19.00;99.90;;;;;;4976928;28;20411;-74
2023/10/09 10:55:17;;;;;;;16.05;3.78;;;19.10;99.90;;;;;;4992794;28;20037;-74
2023/10/09 10:57:19;;;;;;;14.43;4.18;;;19.20;99.90;;;;;;4984331;28;20082;-74
2023/10/09 10:59:45;;;;;;;20.40;4.18;;;19.20;99.90;;;;;;4996695;28;20108;-74
2023/10/09 11:04:45;;;;;;;17.08;3.97;;;19.40;99.90;;;;;;4998010;28;20038;-74
2023/10/09 11:07:16;;;;;;;17.17;4.15;;;19.50;99.90;;;;;;4997981;28;20041;-74
2023/10/09 11:09:59;;;;;;;17.13;4.38;;;19.60;99.90;;;;;;4997808;28;20033;-74
2023/10/09 11:12:39;;;;;;;13.15;3.53;;;19.60;99.90;;;;;;4998162;28;20031;-74
2023/10/09 11:15:29;;;;;;;19.35;3.83;;;19.70;99.90;;;;;;4997863;28;20059;-74
2023/10/09 11:18:07;;;;;;;15.82;4.00;;;19.80;99.90;;;;;;4998121;28;20041;-74
2023/10/09 11:20:38;;;;;;;20.25;3.90;;;19.90;99.90;;;;;;4997614;28;20101;-74
2023/10/09 11:23:14;;;;;;;13.30;3.65;;;20.10;99.90;;;;;;4997420;28;20030;-73
2023/10/09 11:25:52;;;;;;;11.05;3.70;;;20.30;99.90;;;;;;4997190;28;20038;-74
2023/10/09 11:28:29;;;;;;;12.63;4.15;;;20.50;99.90;;;;;;4997584;28;20045;-73
2023/10/09 11:31:16;;;;;;;16.52;4.05;;;20.60;99.90;;;;;;4997437;28;20493;-74
2023/10/09 11:33:52;;;;;;;12.50;4.45;;;20.70;99.90;;;;;;4980569;28;20469;-73
2023/10/09 11:36:32;;;;;;;15.07;3.58;;;20.80;99.90;;;;;;4997567;28;20049;-73
2023/10/09 11:39:15;;;;;;;12.13;3.00;;;20.90;99.90;;;;;;4997774;28;20030;-74
2023/10/09 11:41:49;;;;;;;17.13;3.65;;;20.90;99.90;;;;;;4997472;28;20109;-74
2023/10/09 11:44:24;;;;;;;13.93;3.65;;;20.90;99.90;;;;;;4997887;28;20114;-74
2023/10/09 11:47:24;;;;;;;14.75;3.75;;;20.90;99.90;;;;;;4997431;28;20038;-74
2023/10/09 11:52:45;;;;;;;16.33;4.35;;;21.10;99.90;;;;;;4997469;28;20105;-74
2023/10/09 11:55:14;;;;;;;21.65;4.60;;;21.20;99.90;;;;;;4996904;28;20466;-74
2023/10/09 11:57:41;;;;;;;19.60;3.83;;;21.20;99.90;;;;;;4997054;28;20034;-74
2023/10/09 12:00:29;;;;;;;17.15;3.20;;;21.20;99.90;;;;;;4997040;28;20043;-74
2023/10/09 12:02:56;;;;;;;15.35;3.35;;;21.20;99.90;;;;;;4996985;28;20041;-74
2023/10/09 12:05:22;;;;;;;15.40;3.80;;;21.30;99.90;;;;;;4979075;28;20037;-74
2023/10/09 12:07:57;;;;;;;12.20;3.20;;;21.30;99.90;;;;;;4996802;28;20088;-72
2023/10/09 12:10:25;;;;;;;13.85;2.72;;;21.30;99.90;;;;;;4996881;28;20023;-74
2023/10/09 12:12:57;;;;;;;11.88;3.17;;;21.40;99.90;;;;;;4978943;28;20058;-74
2023/10/09 12:15:23;;;;;;;13.93;2.83;;;21.50;99.90;;;;;;4996227;28;20022;-73
2023/10/09 12:17:49;;;;;;;14.43;3.15;;;21.70;99.90;;;;;;4996354;28;20031;-74
2023/10/09 12:20:31;;;;;;;12.40;3.00;;;21.90;99.60;;;;;;4978887;28;20023;-74
2023/10/09 12:23:04;;;;;;;18.85;4.00;;;22.00;98.90;;;;;;4996662;28;20022;-73
2023/10/09 12:25:31;;;;;;;15.07;3.35;;;22.20;96.20;;;;;;4996280;28;20429;-73
2023/10/09 12:27:57;;;;;;;15.25;3.28;;;22.30;95.40;;;;;;4996255;28;20022;-71
2023/10/09 12:30:29;;;;;;;13.43;2.88;;;22.30;95.10;;;;;;4996659;28;20117;-73
2023/10/09 12:32:57;;;;;;;25.35;3.20;;;22.50;95.90;;;;;;4978721;28;20093;-73
2023/10/09 12:35:27;;;;;;;16.48;2.95;;;22.70;93.60;;;;;;4995927;28;20391;-72
2023/10/09 12:37:58;;;;;;;14.77;2.95;;;23.00;94.10;;;;;;4996096;28;20018;-70
2023/10/09 12:40:24;;;;;;;18.30;3.22;;;23.10;93.70;;;;;;4996002;28;20042;-70
2023/10/09 12:42:52;;;;;;;12.13;2.95;;;23.30;92.70;;;;;;4996666;28;20027;-70
2023/10/09 12:45:22;;;;;;;13.95;2.80;;;23.40;92.20;;;;;;4995794;28;20034;-70
2023/10/09 12:47:51;;;;;;;14.27;3.60;;;23.60;89.50;;;;;;4996185;28;20109;-71
2023/10/09 12:50:27;;;;;;;11.50;3.67;;;23.60;89.20;;;;;;4996087;28;20125;-71
2023/10/09 12:53:01;;;;;;;16.30;2.50;;;23.70;91.20;;;;;;4995790;28;20023;-71
2023/10/09 12:55:34;;;;;;;17.75;3.13;;;23.90;90.10;;;;;;4995615;28;20482;-72
2023/10/09 12:58:06;;;;;;;13.32;2.53;;;23.90;87.60;;;;;;4995962;28;20085;-73
2023/10/09 13:00:32;;;;;;;13.32;2.97;;;24.00;86.70;;;;;;4995925;28;20033;-73
2023/10/09 13:03:01;;;;;;;16.63;2.83;;;24.00;78.40;;;;;;4995605;28;20449;-73
2023/10/09 13:05:27;;;;;;;16.02;3.40;;;23.90;79.00;;;;;;4995542;28;20113;-72
2023/10/09 13:07:56;;;;;;;18.67;3.15;;;23.80;81.30;;;;;;4995504;28;20053;-73
2023/10/09 13:10:23;;;;;;;12.90;2.40;;;23.70;78.40;;;;;;4995399;28;20022;-72
2023/10/09 13:12:55;;;;;;;16.70;2.55;;;23.70;75.10;;;;;;4995555;28;20054;-72
2023/10/09 13:15:21;;;;;;;14.10;2.70;;;23.60;82.90;;;;;;4996123;28;20030;-73
2023/10/09 13:17:47;;;;;;;13.70;2.80;;;23.60;82.40;;;;;;4995734;28;20057;-73
2023/10/09 13:20:13;;;;;;;18.02;2.80;;;23.60;87.30;;;;;;4995295;28;20034;-73
2023/10/09 13:22:42;;;;;;;14.82;3.05;;;23.50;77.50;;;;;;4995260;28;20026;-72
2023/10/09 13:25:16;;;;;;;19.42;3.08;;;23.40;76.20;;;;;;4995102;28;20106;-73
2023/10/09 13:27:50;;;;;;;16.98;3.17;;;23.30;76.80;;;;;;4995679;28;20555;-73
2023/10/09 13:30:23;;;;;;;14.38;2.60;;;23.30;69.10;;;;;;4995387;28;20049;-73
2023/10/09 13:32:50;;;;;;;15.10;2.75;;;23.30;70.00;;;;;;4995054;28;20594;-73
2023/10/09 13:35:19;;;;;;;13.65;3.72;;;23.30;74.30;;;;;;4994818;28;20161;-73
2023/10/09 13:37:53;;;;;;;12.48;3.40;;;23.30;74.50;;;;;;4977413;28;20031;-73
2023/10/09 13:40:29;;;;;;;12.93;3.22;;;23.30;76.00;;;;;;4994968;28;20105;-73
2023/10/09 13:43:01;;;;;;;10.45;2.75;;;23.30;75.40;;;;;;4994714;28;20109;-73
2023/10/09 13:45:32;;;;;;;13.10;3.00;;;23.20;73.50;;;;;;4995011;28;20042;-73
2023/10/09 13:47:59;;;;;;;9.07;2.55;;;23.20;65.40;;;;;;4994957;28;20113;-73
2023/10/09 13:50:28;;;;;;;9.85;2.30;;;23.30;69.40;;;;;;4994776;28;20034;-73
2023/10/09 13:52:56;;;;;;;14.93;2.50;;;23.30;72.20;;;;;;4977487;28;20044;-73
2023/10/09 13:55:21;;;;;;;14.15;3.25;;;23.20;76.70;;;;;;4994405;28;20117;-73
2023/10/09 13:57:47;;;;;;;13.02;3.30;;;23.10;73.30;;;;;;4994602;28;20153;-73
2023/10/09 14:00:32;;;;;;;15.88;3.35;;;23.10;71.90;;;;;;4994452;28;20033;-73
2023/10/09 14:03:01;;;;;;;16.45;2.42;;;23.00;74.10;;;;;;4994755;28;20027;-73
2023/10/09 14:05:29;;;;;;;14.98;2.55;;;23.00;73.60;;;;;;4994380;28;20026;-73
2023/10/09 14:07:59;;;;;;;10.20;2.85;;;22.90;74.70;;;;;;4977453;28;20045;-73
2023/10/09 14:10:30;;;;;;;13.18;2.70;;;22.90;76.60;;;;;;4994381;28;20027;-73
2023/10/09 14:12:56;;;;;;;16.13;3.00;;;22.90;76.70;;;;;;4994626;28;20486;-73
2023/10/09 14:15:23;;;;;;;12.73;2.75;;;22.70;76.50;;;;;;4994127;28;20479;-73
2023/10/09 14:17:55;;;;;;;10.68;2.85;;;22.70;76.70;;;;;;4994343;28;20092;-73
2023/10/09 14:20:31;;;;;;;10.32;2.55;;;22.60;74.00;;;;;;4976830;28;20037;-73
2023/10/09 14:23:07;;;;;;;16.98;3.58;;;22.50;75.50;;;;;;4994242;28;20031;-73
2023/10/09 14:25:39;;;;;;;14.70;3.42;;;22.40;74.60;;;;;;4993998;28;20030;-73
2023/10/09 14:28:09;;;;;;;11.88;2.90;;;22.40;75.00;;;;;;4993733;28;20054;-73
2023/10/09 14:30:44;;;;;;;13.00;2.92;;;22.30;78.70;;;;;;4993603;28;20027;-73
2023/10/09 14:33:14;;;;;;;11.65;2.70;;;22.30;79.80;;;;;;4977868;28;20038;-73
2023/10/09 14:35:41;;;;;;;10.35;2.47;;;22.30;80.80;;;;;;4994127;28;20050;-73
2023/10/09 14:38:15;;;;;;;7.88;1.92;;;22.20;77.90;;;;;;4994078;28;20074;-73
2023/10/09 14:40:45;;;;;;;11.85;2.63;;;22.20;78.90;;;;;;4993984;28;20376;-73
2023/10/09 14:43:18;;;;;;;9.97;2.63;;;22.20;75.60;;;;;;4976883;28;20494;-73
2023/10/09 14:45:53;;;;;;;10.82;2.30;;;22.20;75.30;;;;;;4994371;28;20058;-73
2023/10/09 14:48:25;;;;;;;13.00;2.70;;;22.20;76.90;;;;;;4994483;28;20422;-73
2023/10/09 14:51:04;;;;;;;17.30;3.15;;;22.20;75.60;;;;;;4993904;28;20034;-73
2023/10/09 14:53:30;;;;;;;16.02;3.00;;;22.10;75.60;;;;;;4994171;28;20026;-73
2023/10/09 14:55:56;;;;;;;11.77;2.78;;;22.00;75.70;;;;;;4993953;28;20109;-73
2023/10/09 14:58:25;;;;;;;11.13;2.50;;;22.00;77.80;;;;;;4976642;28;20088;-73
2023/10/09 15:00:52;;;;;;;17.55;2.83;;;21.90;78.80;;;;;;4993880;28;20113;-73
2023/10/09 15:03:19;;;;;;;13.77;3.25;;;21.80;80.30;;;;;;4994250;28;20388;-73
2023/10/09 15:05:46;;;;;;;13.00;2.70;;;21.80;70.60;;;;;;4993690;28;20023;-73
2023/10/09 15:08:11;;;;;;;21.52;4.50;;;21.70;72.10;;;;;;4993730;28;20498;-73
2023/10/09 15:10:48;;;;;;;18.27;3.55;;;21.70;75.50;;;;;;4993727;28;20061;-73
2023/10/09 15:13:16;;;;;;;11.57;3.20;;;21.60;67.50;;;;;;4993671;28;20105;-73
2023/10/09 15:15:44;;;;;;;10.60;3.00;;;21.60;64.30;;;;;;4960141;28;20549;-72
2023/10/09 15:18:13;;;;;;;9.40;2.92;;;21.60;61.60;;;;;;4993686;28;20391;-73
2023/10/09 15:20:40;;;;;;;9.82;2.95;;;21.50;63.10;;;;;;4993573;28;20109;-73
2023/10/09 15:23:07;;;;;;;13.20;3.25;;;21.50;62.30;;;;;;4993628;28;20027;-73
2023/10/09 15:25:34;;;;;;;11.45;3.35;;;21.40;63.10;;;;;;4993572;28;20031;-73
2023/10/09 15:28:03;;;;;;;8.65;3.00;;;21.30;65.40;;;;;;4994106;28;20130;-73
2023/10/09 15:30:31;;;;;;;12.20;3.30;;;21.20;65.30;;;;;;4993515;28;20034;-73
2023/10/09 15:32:57;;;;;;;11.38;3.22;;;21.00;65.70;;;;;;4976742;28;20038;-73
2023/10/09 15:35:23;;;;;;;12.02;3.28;;;20.90;66.90;;;;;;4993638;28;20030;-73
2023/10/09 15:37:52;;;;;;;7.38;2.50;;;20.70;65.60;;;;;;4976277;28;20037;-73